Time;durP1;ratioP1;P1;durP2;ratioP2;P2;SDS_P1;SDS_P2;PMS_P1;PMS_P2;Temp;Humidity;BMP_temperature;BMP_pressure;BME280_temperature;BME280_humidity;BME280_pressure;Samples;Min_cycle;Max_cycle;Signal;HPM_P1;HPM_P2
2021/10/26 00:02:04;;;;;;;98.78;45.20;;;-0.90;99.90;;;;;;5033602;28;20033;-75
2021/10/26 00:04:30;;;;;;;81.93;40.30;;;-0.90;99.90;;;;;;5034872;28;20029;-75
2021/10/26 00:06:56;;;;;;;75.13;38.60;;;-0.90;99.90;;;;;;5033579;28;20017;-77
2021/10/26 00:09:22;;;;;;;74.63;35.38;;;-0.90;99.90;;;;;;5034798;28;20018;-75
2021/10/26 00:11:48;;;;;;;73.38;32.53;;;-1.00;99.90;;;;;;5033578;28;20029;-76
2021/10/26 00:14:14;;;;;;;66.68;32.67;;;-1.00;99.90;;;;;;5034653;28;20029;-75
2021/10/26 00:16:39;;;;;;;71.07;33.63;;;-1.00;99.90;;;;;;5033362;28;20018;-77
2021/10/26 00:19:05;;;;;;;72.38;32.05;;;-1.00;99.90;;;;;;5033273;28;20017;-75
2021/10/26 00:21:31;;;;;;;69.47;34.92;;;-0.90;99.90;;;;;;5034571;28;20048;-76
2021/10/26 00:23:57;;;;;;;62.53;32.03;;;-1.00;99.90;;;;;;5034383;28;20060;-75
2021/10/26 00:26:22;;;;;;;74.38;36.03;;;-1.00;99.90;;;;;;5034586;28;20033;-75
2021/10/26 00:28:48;;;;;;;71.97;36.55;;;-1.00;99.90;;;;;;5034311;28;20032;-75
2021/10/26 00:31:14;;;;;;;101.95;47.67;;;-1.00;99.90;;;;;;5033159;28;20021;-76
2021/10/26 00:33:40;;;;;;;118.03;54.15;;;-1.00;99.90;;;;;;5033180;28;20040;-75
2021/10/26 00:36:06;;;;;;;112.10;53.08;;;-1.20;99.90;;;;;;5034317;28;20111;-75
2021/10/26 00:38:31;;;;;;;119.07;59.22;;;-1.30;99.90;;;;;;5034178;28;20621;-75
2021/10/26 00:40:59;;;;;;;115.57;55.83;;;-1.30;99.90;;;;;;5034226;28;20025;-75
2021/10/26 00:43:25;;;;;;;97.38;45.67;;;-1.30;99.90;;;;;;5032815;28;20451;-76
2021/10/26 00:45:50;;;;;;;87.00;40.85;;;-1.30;99.90;;;;;;5033967;28;20034;-75
2021/10/26 00:48:16;;;;;;;74.43;35.05;;;-1.30;99.90;;;;;;5033956;28;20025;-76
2021/10/26 00:50:42;;;;;;;73.10;37.03;;;-1.30;99.90;;;;;;5032592;28;20044;-75
2021/10/26 00:53:08;;;;;;;70.80;35.53;;;-1.30;99.90;;;;;;5032688;28;20092;-75
2021/10/26 00:55:34;;;;;;;81.28;36.42;;;-1.30;99.90;;;;;;5033911;28;20426;-75
2021/10/26 00:58:00;;;;;;;78.20;37.17;;;-1.30;99.90;;;;;;5033667;28;20045;-76
2021/10/26 01:00:26;;;;;;;77.82;36.15;;;-1.30;99.90;;;;;;5032497;28;20029;-75
2021/10/26 01:02:51;;;;;;;74.72;38.08;;;-1.30;99.90;;;;;;5032473;28;20079;-75
2021/10/26 01:05:17;;;;;;;71.20;37.67;;;-1.30;99.90;;;;;;5033710;28;20025;-75
2021/10/26 01:07:43;;;;;;;82.38;38.45;;;-1.30;99.90;;;;;;5033745;28;20025;-76
2021/10/26 01:10:10;;;;;;;74.78;35.80;;;-1.30;99.90;;;;;;5033606;28;20053;-75
2021/10/26 01:12:37;;;;;;;74.03;32.70;;;-1.20;99.90;;;;;;5033594;28;20092;-76
2021/10/26 01:15:04;;;;;;;59.33;31.40;;;-1.20;99.90;;;;;;5032227;28;20543;-75
2021/10/26 01:17:30;;;;;;;69.82;33.20;;;-1.30;99.90;;;;;;5032248;28;20030;-75
2021/10/26 01:19:57;;;;;;;60.95;33.75;;;-1.30;99.90;;;;;;5032211;28;20021;-75
2021/10/26 01:22:27;;;;;;;61.67;31.30;;;-1.40;99.90;;;;;;5032265;28;20014;-76
2021/10/26 01:24:53;;;;;;;79.07;41.28;;;-1.40;99.90;;;;;;5033634;28;20049;-75
2021/10/26 01:27:20;;;;;;;80.47;37.55;;;-1.40;99.90;;;;;;5032113;28;20077;-77
2021/10/26 01:29:46;;;;;;;71.50;39.55;;;-1.50;99.90;;;;;;5031927;28;20033;-75
2021/10/26 01:32:13;;;;;;;73.18;35.97;;;-1.40;99.90;;;;;;5033171;28;20394;-76
2021/10/26 01:34:40;;;;;;;80.75;36.25;;;-1.50;99.90;;;;;;5033254;28;20505;-75
2021/10/26 01:37:08;;;;;;;70.43;34.80;;;-1.50;99.90;;;;;;5033100;28;20125;-76
2021/10/26 01:39:35;;;;;;;69.05;34.05;;;-1.50;99.90;;;;;;5031854;28;20024;-75
2021/10/26 01:42:02;;;;;;;67.93;33.45;;;-1.50;99.90;;;;;;5033161;28;20475;-76
2021/10/26 01:44:28;;;;;;;61.17;29.70;;;-1.50;99.90;;;;;;5032700;28;20116;-75
2021/10/26 01:46:54;;;;;;;58.92;27.80;;;-1.50;99.90;;;;;;5033162;28;20467;-75
2021/10/26 01:49:21;;;;;;;59.65;26.98;;;-1.50;99.90;;;;;;5031710;28;20052;-75
2021/10/26 01:51:47;;;;;;;52.22;26.60;;;-1.50;99.90;;;;;;5033059;28;20026;-75
2021/10/26 01:54:13;;;;;;;57.95;25.17;;;-1.50;99.90;;;;;;5032936;28;20442;-75
2021/10/26 01:56:40;;;;;;;66.43;28.50;;;-1.50;99.90;;;;;;5032922;28;20079;-76
2021/10/26 01:59:05;;;;;;;57.45;26.90;;;-1.50;99.90;;;;;;5031518;28;20028;-75
2021/10/26 02:01:31;;;;;;;56.10;25.92;;;-1.50;99.90;;;;;;5032220;28;20034;-75
2021/10/26 02:03:56;;;;;;;54.58;23.92;;;-1.50;99.90;;;;;;5031445;28;20021;-75
2021/10/26 02:06:22;;;;;;;65.95;29.50;;;-1.50;99.90;;;;;;5032887;28;20530;-76
2021/10/26 02:08:48;;;;;;;72.18;32.17;;;-1.50;99.90;;;;;;5033015;28;20029;-75
2021/10/26 02:11:14;;;;;;;67.35;31.77;;;-1.60;99.90;;;;;;5032804;28;20101;-76
2021/10/26 02:13:40;;;;;;;67.50;27.95;;;-1.60;99.90;;;;;;5031526;28;20517;-75
2021/10/26 02:16:06;;;;;;;64.55;32.05;;;-1.70;99.90;;;;;;5032831;28;20030;-75
2021/10/26 02:18:32;;;;;;;64.38;29.50;;;-1.70;99.90;;;;;;5032631;28;20030;-75
2021/10/26 02:20:58;;;;;;;69.63;32.22;;;-1.70;99.90;;;;;;5031463;28;20109;-76
2021/10/26 02:23:24;;;;;;;66.20;30.52;;;-1.70;99.90;;;;;;5032588;28;20464;-75
2021/10/26 02:25:50;;;;;;;58.83;28.92;;;-1.70;99.90;;;;;;5031422;28;20112;-76
2021/10/26 02:28:16;;;;;;;72.03;32.05;;;-1.70;99.90;;;;;;5031367;28;20028;-75
2021/10/26 02:30:43;;;;;;;74.88;35.08;;;-1.70;99.90;;;;;;5032595;28;20084;-75
2021/10/26 02:33:10;;;;;;;66.05;30.48;;;-1.80;99.90;;;;;;5032636;28;20033;-75
2021/10/26 02:35:36;;;;;;;64.55;30.20;;;-1.90;99.90;;;;;;5032531;28;20084;-75
2021/10/26 02:38:02;;;;;;;66.65;33.47;;;-1.80;99.90;;;;;;5031098;28;20026;-76
2021/10/26 02:40:28;;;;;;;66.65;31.88;;;-1.90;99.90;;;;;;5031248;28;20025;-75
2021/10/26 02:42:54;;;;;;;59.00;28.77;;;-1.80;99.90;;;;;;5032485;28;20021;-75
2021/10/26 02:45:20;;;;;;;53.90;25.10;;;-1.90;99.90;;;;;;5032466;28;20028;-74
2021/10/26 02:47:46;;;;;;;49.65;24.25;;;-1.80;99.90;;;;;;5032473;28;20026;-75
2021/10/26 02:50:12;;;;;;;48.72;22.83;;;-1.80;99.90;;;;;;5031043;28;20018;-75
2021/10/26 02:52:38;;;;;;;44.70;23.83;;;-1.90;99.90;;;;;;5032467;28;20021;-75
2021/10/26 02:55:05;;;;;;;56.20;24.77;;;-1.90;99.90;;;;;;5030980;28;20048;-75
2021/10/26 02:57:31;;;;;;;54.75;24.20;;;-1.90;99.90;;;;;;5034108;28;20114;-75
2021/10/26 02:59:57;;;;;;;48.97;23.73;;;-1.90;99.90;;;;;;5036035;28;20013;-75
2021/10/26 03:02:23;;;;;;;52.50;24.02;;;-1.90;99.90;;;;;;5036543;28;20513;-74
2021/10/26 03:04:49;;;;;;;53.83;25.45;;;-1.90;99.90;;;;;;5036003;28;20029;-75
2021/10/26 03:07:15;;;;;;;66.95;29.13;;;-1.90;99.90;;;;;;5034769;28;20479;-78
2021/10/26 03:09:41;;;;;;;56.25;26.40;;;-1.90;99.90;;;;;;5035918;28;20108;-75
2021/10/26 03:12:07;;;;;;;60.40;27.55;;;-1.90;99.90;;;;;;5034679;28;20034;-76
2021/10/26 03:14:33;;;;;;;57.10;28.45;;;-1.90;99.90;;;;;;5035656;28;20096;-76
2021/10/26 03:16:58;;;;;;;65.60;30.33;;;-1.90;99.90;;;;;;5035871;28;20451;-75
2021/10/26 03:19:24;;;;;;;65.65;31.02;;;-1.90;99.90;;;;;;5035723;28;20048;-76
2021/10/26 03:21:50;;;;;;;67.97;30.80;;;-1.90;99.90;;;;;;5035711;28;20033;-76
2021/10/26 03:24:15;;;;;;;62.15;27.65;;;-2.00;99.90;;;;;;5035625;28;20035;-75
2021/10/26 03:26:41;;;;;;;72.47;33.25;;;-2.00;99.90;;;;;;5034433;28;20022;-76
2021/10/26 03:29:07;;;;;;;71.57;31.80;;;-2.00;99.90;;;;;;5034288;28;20018;-75
2021/10/26 03:31:33;;;;;;;72.25;30.67;;;-2.00;99.90;;;;;;5034266;28;20044;-75
2021/10/26 03:33:58;;;;;;;60.00;27.63;;;-2.00;99.90;;;;;;5035431;28;20502;-74
2021/10/26 03:36:24;;;;;;;56.78;26.23;;;-2.00;99.90;;;;;;5035545;28;20061;-74
2021/10/26 03:38:51;;;;;;;64.10;26.20;;;-2.00;99.90;;;;;;5035247;28;20540;-74
2021/10/26 03:41:17;;;;;;;73.90;29.17;;;-2.00;99.90;;;;;;5034086;28;20514;-75
2021/10/26 03:43:42;;;;;;;66.35;27.23;;;-2.00;99.90;;;;;;5035308;28;20021;-75
2021/10/26 03:46:08;;;;;;;66.95;29.25;;;-2.00;99.90;;;;;;5034036;28;20021;-75
2021/10/26 03:48:34;;;;;;;61.03;26.20;;;-2.00;99.90;;;;;;5035245;28;20030;-74
2021/10/26 03:50:59;;;;;;;70.32;32.05;;;-2.00;99.90;;;;;;5035152;28;20021;-76
2021/10/26 03:53:27;;;;;;;66.95;30.05;;;-2.10;99.90;;;;;;5033877;28;20356;-74
2021/10/26 03:55:52;;;;;;;71.03;29.63;;;-2.10;99.90;;;;;;5035045;28;20029;-75
2021/10/26 03:58:18;;;;;;;63.80;28.70;;;-2.10;99.90;;;;;;5035017;28;20037;-75
2021/10/26 04:00:44;;;;;;;61.28;27.98;;;-2.10;99.90;;;;;;5034868;28;20060;-75
2021/10/26 04:03:09;;;;;;;72.95;26.70;;;-2.20;99.90;;;;;;5035054;28;20114;-74
2021/10/26 04:10:54;;;;;;;54.33;24.77;;;-2.20;99.90;;;;;;5034802;28;20025;-77
2021/10/26 04:13:22;;;;;;;59.88;23.90;;;-2.20;99.90;;;;;;5033612;28;20089;-77
2021/10/26 04:15:49;;;;;;;49.72;22.73;;;-2.20;99.90;;;;;;5034676;28;20028;-74
2021/10/26 04:18:15;;;;;;;53.70;24.75;;;-2.20;99.90;;;;;;5033351;28;20391;-75
2021/10/26 04:20:41;;;;;;;44.20;21.92;;;-2.20;99.90;;;;;;5033291;28;20383;-74
2021/10/26 04:23:06;;;;;;;48.33;20.85;;;-2.20;99.90;;;;;;5034755;28;20025;-75
2021/10/26 04:25:32;;;;;;;54.75;22.55;;;-2.20;99.90;;;;;;5033255;28;20018;-74
2021/10/26 04:27:59;;;;;;;44.25;22.55;;;-2.20;99.90;;;;;;5033250;28;20027;-75
2021/10/26 04:30:25;;;;;;;45.67;23.92;;;-2.20;99.90;;;;;;5034395;28;20022;-74
2021/10/26 04:32:51;;;;;;;46.47;23.55;;;-2.20;99.90;;;;;;5034357;28;20040;-76
2021/10/26 04:35:17;;;;;;;51.72;23.83;;;-2.20;99.90;;;;;;5033029;28;20034;-74
2021/10/26 04:37:42;;;;;;;59.47;24.70;;;-2.30;99.90;;;;;;5029772;28;20495;-75
2021/10/26 04:40:10;;;;;;;59.05;24.77;;;-2.20;99.90;;;;;;5013136;28;20061;-76
2021/10/26 04:42:36;;;;;;;51.40;26.55;;;-2.20;99.90;;;;;;5014413;28;20061;-76
2021/10/26 04:45:03;;;;;;;64.05;29.83;;;-2.30;99.90;;;;;;5014248;28;20025;-76
2021/10/26 04:47:29;;;;;;;63.40;28.58;;;-2.30;99.90;;;;;;5014419;28;20053;-74
2021/10/26 04:49:55;;;;;;;52.95;28.38;;;-2.30;99.90;;;;;;5012966;28;20064;-76
2021/10/26 04:52:21;;;;;;;53.95;23.48;;;-2.30;99.90;;;;;;5013070;28;20415;-76
2021/10/26 04:54:47;;;;;;;51.28;24.63;;;-2.30;99.90;;;;;;5012878;28;20026;-76
2021/10/26 04:57:13;;;;;;;48.40;22.33;;;-2.30;99.90;;;;;;5026379;28;20083;-77
2021/10/26 04:59:39;;;;;;;54.55;23.73;;;-2.30;99.90;;;;;;5033821;28;20108;-74
2021/10/26 05:02:04;;;;;;;48.95;22.55;;;-2.30;99.90;;;;;;5032580;28;20029;-75
2021/10/26 05:04:30;;;;;;;47.10;21.85;;;-2.30;99.90;;;;;;5032524;28;20029;-74
2021/10/26 05:06:56;;;;;;;53.58;24.10;;;-2.30;99.90;;;;;;5032485;28;20368;-76
2021/10/26 05:09:22;;;;;;;56.22;23.85;;;-2.30;99.90;;;;;;5032461;28;20387;-74
2021/10/26 05:11:48;;;;;;;57.28;25.08;;;-2.30;99.90;;;;;;5032410;28;20021;-75
2021/10/26 05:14:13;;;;;;;55.33;22.98;;;-2.30;99.90;;;;;;5033298;28;20433;-74
2021/10/26 05:16:43;;;;;;;47.28;22.40;;;-2.30;99.90;;;;;;5033529;28;20026;-74
2021/10/26 05:19:09;;;;;;;44.85;22.35;;;-2.30;99.90;;;;;;5031093;28;20053;-74
2021/10/26 05:21:35;;;;;;;45.80;22.00;;;-2.30;99.90;;;;;;5033307;28;20028;-73
2021/10/26 05:24:01;;;;;;;50.85;22.85;;;-2.30;99.90;;;;;;5038946;28;20033;-74
2021/10/26 05:26:32;;;;;;;52.88;22.60;;;-2.30;99.90;;;;;;5042833;28;20044;-74
2021/10/26 05:28:58;;;;;;;48.90;24.92;;;-2.30;99.90;;;;;;5036500;28;20071;-74
2021/10/26 05:31:24;;;;;;;47.88;22.40;;;-2.30;99.90;;;;;;5032036;28;20037;-75
2021/10/26 05:33:50;;;;;;;45.60;21.42;;;-2.30;99.90;;;;;;5042500;28;20025;-75
2021/10/26 05:36:16;;;;;;;45.58;20.75;;;-2.30;99.90;;;;;;5031361;28;20128;-74
2021/10/26 05:38:42;;;;;;;46.80;20.63;;;-2.30;99.90;;;;;;5018628;28;20791;-77
2021/10/26 05:41:10;;;;;;;45.08;20.98;;;-2.30;99.90;;;;;;5022006;28;20029;-74
2021/10/26 05:43:37;;;;;;;44.28;21.60;;;-2.30;99.90;;;;;;5023454;28;20013;-74
2021/10/26 05:46:03;;;;;;;47.25;23.73;;;-2.30;99.90;;;;;;5016887;28;20037;-74
2021/10/26 05:48:30;;;;;;;59.90;24.38;;;-2.20;99.90;;;;;;5018277;28;20026;-74
2021/10/26 05:50:56;;;;;;;54.78;25.55;;;-2.20;99.90;;;;;;5028643;28;20018;-75
2021/10/26 05:53:22;;;;;;;54.13;25.85;;;-2.20;99.90;;;;;;5033025;28;20515;-74
2021/10/26 05:55:48;;;;;;;54.55;25.45;;;-2.20;99.90;;;;;;5022866;28;20029;-75
2021/10/26 05:58:13;;;;;;;56.83;25.73;;;-2.20;99.90;;;;;;5012059;28;20041;-75
2021/10/26 06:00:41;;;;;;;50.40;22.85;;;-2.20;99.90;;;;;;5011191;28;20060;-75
2021/10/26 06:03:07;;;;;;;60.88;27.75;;;-2.10;99.90;;;;;;5010801;28;20026;-74
2021/10/26 06:05:33;;;;;;;51.30;24.30;;;-2.10;99.90;;;;;;5014059;28;20111;-74
2021/10/26 06:07:59;;;;;;;51.45;26.15;;;-2.10;99.90;;;;;;5028634;28;20029;-75
2021/10/26 06:10:26;;;;;;;63.00;27.67;;;-2.10;99.90;;;;;;5016661;28;20479;-75
2021/10/26 06:12:58;;;;;;;89.63;34.65;;;-2.00;99.90;;;;;;5012806;28;20022;-74
2021/10/26 06:15:24;;;;;;;119.28;40.78;;;-2.00;99.90;;;;;;5011809;28;20447;-74
2021/10/26 06:17:49;;;;;;;101.97;41.25;;;-2.00;99.90;;;;;;5018844;28;20068;-74
2021/10/26 06:20:16;;;;;;;95.78;37.03;;;-2.00;99.90;;;;;;5026982;28;20036;-74
2021/10/26 06:22:42;;;;;;;80.00;33.70;;;-1.90;99.90;;;;;;5017377;28;20026;-74
2021/10/26 06:25:08;;;;;;;56.72;28.08;;;-1.90;99.90;;;;;;5011471;28;20053;-74
2021/10/26 06:27:33;;;;;;;57.58;28.50;;;-1.80;99.90;;;;;;5012785;28;20030;-74
2021/10/26 06:30:00;;;;;;;71.95;31.30;;;-1.70;99.90;;;;;;5013664;28;20445;-73
2021/10/26 06:32:27;;;;;;;78.28;32.63;;;-1.60;99.90;;;;;;5015649;28;20022;-75
2021/10/26 06:34:53;;;;;;;68.65;31.58;;;-1.50;99.90;;;;;;5015418;28;20149;-74
2021/10/26 06:37:19;;;;;;;79.30;34.85;;;-1.40;99.90;;;;;;5016380;28;20513;-75
2021/10/26 06:39:45;;;;;;;70.38;31.33;;;-1.30;99.90;;;;;;5014304;28;20033;-75
2021/10/26 06:42:11;;;;;;;53.63;28.35;;;-1.10;99.90;;;;;;5015194;28;20044;-75
2021/10/26 06:44:36;;;;;;;60.22;30.30;;;-1.00;99.90;;;;;;5016615;28;20475;-75
2021/10/26 06:47:03;;;;;;;67.03;28.88;;;-0.80;99.90;;;;;;5034733;28;20142;-76
2021/10/26 06:49:29;;;;;;;60.95;28.90;;;-0.60;99.90;;;;;;5024457;28;20411;-75
2021/10/26 06:51:55;;;;;;;59.60;30.00;;;-0.50;99.90;;;;;;5020685;28;20025;-75
2021/10/26 06:54:21;;;;;;;62.10;30.27;;;-0.30;99.90;;;;;;5015150;28;20427;-74
2021/10/26 06:56:47;;;;;;;87.22;36.75;;;-0.20;99.90;;;;;;5015909;28;20060;-75
2021/10/26 06:59:13;;;;;;;72.22;34.13;;;-0.10;99.90;;;;;;5015887;28;20053;-74
2021/10/26 07:01:38;;;;;;;80.13;35.35;;;0.10;99.90;;;;;;5020175;28;20619;-74
2021/10/26 07:04:04;;;;;;;127.03;51.05;;;0.20;99.90;;;;;;5014934;28;20045;-75
2021/10/26 07:06:30;;;;;;;95.32;39.35;;;0.40;99.90;;;;;;5015654;28;20022;-76
2021/10/26 07:08:55;;;;;;;107.20;43.40;;;0.50;99.90;;;;;;5024136;28;20018;-75
2021/10/26 07:11:21;;;;;;;73.53;36.80;;;0.70;99.90;;;;;;5023800;28;20032;-75
2021/10/26 07:13:48;;;;;;;86.75;38.13;;;0.90;99.90;;;;;;5035010;28;20064;-76
2021/10/26 07:16:14;;;;;;;81.05;34.40;;;1.10;99.90;;;;;;5029594;28;20093;-75
2021/10/26 07:18:40;;;;;;;74.78;35.55;;;1.30;99.90;;;;;;5031480;28;20045;-76
2021/10/26 07:21:06;;;;;;;69.65;33.55;;;1.50;99.90;;;;;;5033819;28;20130;-76
2021/10/26 07:23:32;;;;;;;78.95;37.00;;;1.70;99.90;;;;;;5033364;28;20509;-74
2021/10/26 07:25:57;;;;;;;79.55;39.70;;;1.90;99.90;;;;;;5035546;28;20375;-75
2021/10/26 07:28:23;;;;;;;111.50;47.53;;;2.10;99.90;;;;;;5035530;28;20026;-75
2021/10/26 07:30:49;;;;;;;115.18;51.45;;;2.20;99.90;;;;;;5034191;28;20033;-76
2021/10/26 07:33:21;;;;;;;128.27;55.53;;;2.40;99.90;;;;;;5020382;28;20022;-75
2021/10/26 07:35:50;;;;;;;97.33;49.17;;;2.50;99.90;;;;;;5015062;28;20040;-74
2021/10/26 07:38:27;;;;;;;108.68;49.25;;;2.70;99.90;;;;;;5027385;28;20053;-74
2021/10/26 07:40:54;;;;;;;107.90;49.75;;;2.80;99.90;;;;;;5031744;28;20041;-75
2021/10/26 07:43:21;;;;;;;105.25;48.20;;;3.00;99.90;;;;;;5028264;28;20030;-75
2021/10/26 07:45:46;;;;;;;123.05;54.72;;;3.10;99.90;;;;;;5030704;28;20029;-75
2021/10/26 07:48:12;;;;;;;126.50;52.65;;;3.30;99.90;;;;;;5024456;28;20391;-75
2021/10/26 07:50:38;;;;;;;99.93;46.70;;;3.40;99.90;;;;;;5024868;28;20076;-74
2021/10/26 07:53:04;;;;;;;72.57;37.67;;;3.60;99.90;;;;;;5020292;28;20546;-76
2021/10/26 07:55:30;;;;;;;73.55;36.78;;;3.70;99.90;;;;;;5017604;28;20017;-75
2021/10/26 07:57:57;;;;;;;81.03;39.80;;;3.80;99.90;;;;;;5018758;28;20050;-76
2021/10/26 08:00:24;;;;;;;74.78;36.72;;;3.90;99.90;;;;;;5032396;28;20550;-75
2021/10/26 08:02:50;;;;;;;86.07;42.03;;;4.00;99.90;;;;;;5023014;28;20037;-75
2021/10/26 08:05:17;;;;;;;92.47;44.42;;;4.10;99.90;;;;;;5028642;28;20064;-74
2021/10/26 08:07:43;;;;;;;99.70;48.47;;;4.20;99.90;;;;;;5015752;28;20033;-75
2021/10/26 08:10:08;;;;;;;71.47;35.00;;;4.40;99.90;;;;;;5020657;28;20026;-74
2021/10/26 08:12:34;;;;;;;49.20;26.85;;;4.50;99.90;;;;;;5028839;28;20029;-76
2021/10/26 08:15:00;;;;;;;46.72;23.52;;;4.60;99.90;;;;;;5032253;28;20041;-75
2021/10/26 08:17:25;;;;;;;41.78;22.95;;;4.70;99.90;;;;;;5031287;28;20121;-76
2021/10/26 08:19:51;;;;;;;39.92;23.15;;;4.80;99.90;;;;;;5030382;28;20144;-75
2021/10/26 08:22:19;;;;;;;39.08;23.20;;;4.90;99.90;;;;;;5031002;28;20030;-75
2021/10/26 08:24:51;;;;;;;38.25;22.15;;;5.00;99.90;;;;;;5032123;28;20116;-75
2021/10/26 08:27:19;;;;;;;47.15;23.88;;;5.10;99.90;;;;;;5020028;28;20080;-76
2021/10/26 08:30:08;;;;;;;38.08;21.13;;;5.30;99.90;;;;;;5024108;28;20021;-76
2021/10/26 08:35:29;;;;;;;38.20;21.60;;;5.60;99.90;;;;;;5024339;28;20037;-75
2021/10/26 08:38:03;;;;;;;43.67;22.75;;;5.80;99.90;;;;;;5032346;28;20491;-76
2021/10/26 08:40:31;;;;;;;35.30;20.40;;;6.00;99.90;;;;;;5033115;28;20030;-76
2021/10/26 08:43:02;;;;;;;37.85;19.70;;;6.20;99.90;;;;;;5032901;28;20021;-76
2021/10/26 08:45:28;;;;;;;35.63;19.50;;;6.30;99.90;;;;;;5033999;28;20030;-75
2021/10/26 08:47:54;;;;;;;35.65;20.48;;;6.40;99.90;;;;;;5033858;28;20026;-76
2021/10/26 08:50:20;;;;;;;45.88;24.27;;;6.60;99.90;;;;;;5034006;28;20017;-76
2021/10/26 08:52:48;;;;;;;34.22;19.33;;;6.70;99.90;;;;;;5020545;28;20030;-77
2021/10/26 08:55:14;;;;;;;36.38;20.38;;;6.80;99.90;;;;;;5016230;28;20403;-77
2021/10/26 08:57:40;;;;;;;34.17;19.33;;;6.90;99.90;;;;;;5014686;28;20033;-76
2021/10/26 09:00:08;;;;;;;32.00;19.13;;;6.90;99.90;;;;;;5019096;28;20117;-76
2021/10/26 09:02:47;;;;;;;29.75;18.52;;;7.00;99.90;;;;;;5021622;28;20531;-76
2021/10/26 09:05:21;;;;;;;31.58;19.55;;;7.00;99.70;;;;;;5013941;28;20439;-76
2021/10/26 09:08:05;;;;;;;35.92;18.77;;;7.10;97.80;;;;;;5012466;28;20025;-77
2021/10/26 09:10:32;;;;;;;34.25;17.92;;;7.10;95.80;;;;;;5012564;28;20057;-76
2021/10/26 09:18:47;;;;;;;33.55;18.15;;;7.30;96.60;;;;;;5013711;28;20159;-77
2021/10/26 09:21:24;;;;;;;34.72;19.30;;;7.40;95.60;;;;;;5028776;28;20036;-77
2021/10/26 09:23:50;;;;;;;34.65;18.27;;;7.50;92.90;;;;;;5013640;28;20050;-77
2021/10/26 09:26:16;;;;;;;31.73;17.98;;;7.60;95.10;;;;;;5013508;28;20026;-77
2021/10/26 09:28:54;;;;;;;30.35;17.13;;;7.60;91.50;;;;;;5012060;28;20018;-77
2021/10/26 09:31:28;;;;;;;29.95;16.92;;;7.70;90.10;;;;;;5013487;28;20030;-77
2021/10/26 09:34:06;;;;;;;30.25;18.90;;;7.80;89.70;;;;;;5016059;28;20036;-77
2021/10/26 09:36:34;;;;;;;33.80;18.90;;;7.80;87.70;;;;;;5011975;28;20018;-76
2021/10/26 09:39:03;;;;;;;29.38;17.50;;;7.90;87.80;;;;;;5013259;28;20496;-77
2021/10/26 09:41:32;;;;;;;32.13;18.10;;;8.00;88.60;;;;;;5012983;28;20400;-77
2021/10/26 09:44:15;;;;;;;31.55;17.20;;;8.00;88.90;;;;;;5011552;28;20104;-77
2021/10/26 09:46:53;;;;;;;34.33;17.73;;;8.10;86.70;;;;;;5012202;28;20037;-77
2021/10/26 09:49:34;;;;;;;31.13;16.90;;;8.20;88.40;;;;;;5028181;28;20064;-77
2021/10/26 09:52:30;;;;;;;26.88;15.60;;;8.30;88.90;;;;;;5029275;28;20021;-77
2021/10/26 09:55:02;;;;;;;30.95;16.98;;;8.40;86.80;;;;;;5028379;28;20029;-77
2021/10/26 09:57:37;;;;;;;23.10;12.85;;;8.50;87.50;;;;;;5030695;28;20041;-77
2021/10/26 10:00:05;;;;;;;18.05;11.73;;;8.70;83.10;;;;;;5029904;28;20414;-77
2021/10/26 10:02:30;;;;;;;19.15;11.25;;;8.80;79.90;;;;;;5031458;28;20033;-77
2021/10/26 10:04:58;;;;;;;20.40;11.70;;;9.00;78.20;;;;;;5031185;28;20021;-77
2021/10/26 10:07:34;;;;;;;17.52;9.60;;;9.10;75.40;;;;;;5031257;28;20022;-78
2021/10/26 10:10:04;;;;;;;18.23;10.95;;;9.10;71.20;;;;;;5032653;28;20464;-77
2021/10/26 10:12:32;;;;;;;15.45;10.30;;;9.30;72.40;;;;;;5022386;28;20112;-78
2021/10/26 10:14:57;;;;;;;13.82;8.77;;;9.30;71.00;;;;;;5011599;28;20014;-77
2021/10/26 10:17:26;;;;;;;18.92;8.48;;;9.40;70.00;;;;;;5031591;28;20053;-78
2021/10/26 10:19:53;;;;;;;14.35;9.00;;;9.40;69.30;;;;;;5027923;28;20040;-77
2021/10/26 10:22:27;;;;;;;14.73;9.18;;;9.50;69.30;;;;;;5024372;28;20116;-78
2021/10/26 10:25:01;;;;;;;16.50;9.20;;;9.60;69.40;;;;;;5014652;28;20026;-78
2021/10/26 10:27:29;;;;;;;16.17;9.18;;;9.60;67.80;;;;;;5009770;28;20408;-78
2021/10/26 10:29:56;;;;;;;13.73;9.18;;;9.60;68.30;;;;;;5010058;28;20375;-77
2021/10/26 10:32:24;;;;;;;18.13;8.82;;;9.60;68.20;;;;;;5008934;28;20037;-78
2021/10/26 10:34:50;;;;;;;12.68;7.95;;;9.60;69.20;;;;;;5008345;28;20068;-78
2021/10/26 10:37:19;;;;;;;14.00;9.05;;;9.60;67.30;;;;;;5009266;28;20034;-78
2021/10/26 10:39:45;;;;;;;16.58;10.00;;;9.50;66.40;;;;;;5008067;28;20041;-78
2021/10/26 10:42:25;;;;;;;14.05;7.97;;;9.50;67.70;;;;;;5007795;28;20368;-78
2021/10/26 10:44:57;;;;;;;13.00;8.52;;;9.50;67.40;;;;;;5015245;28;20398;-78
2021/10/26 10:47:35;;;;;;;14.95;9.65;;;9.50;68.90;;;;;;5025484;28;20018;-78
2021/10/26 10:50:01;;;;;;;16.05;9.75;;;9.70;70.00;;;;;;5027420;28;20060;-78
2021/10/26 10:52:33;;;;;;;16.70;9.70;;;9.70;69.10;;;;;;5026363;28;20522;-78
2021/10/26 10:55:01;;;;;;;13.57;8.80;;;9.70;67.80;;;;;;5012944;28;20099;-78
2021/10/26 10:57:33;;;;;;;16.38;9.63;;;9.80;68.50;;;;;;5013366;28;20060;-78
2021/10/26 11:00:05;;;;;;;21.55;9.32;;;10.10;69.40;;;;;;5011267;28;20022;-78
2021/10/26 11:02:38;;;;;;;14.00;9.87;;;10.20;67.30;;;;;;5019918;28;20081;-78
2021/10/26 11:05:05;;;;;;;17.02;9.55;;;10.30;65.60;;;;;;5011081;28;20113;-78
2021/10/26 11:07:42;;;;;;;14.15;9.48;;;10.40;66.20;;;;;;5013478;28;20383;-77
2021/10/26 11:10:19;;;;;;;15.05;9.30;;;10.40;64.70;;;;;;5029478;28;20021;-77
2021/10/26 11:12:45;;;;;;;15.60;8.70;;;10.40;63.80;;;;;;5031649;28;20042;-79
2021/10/26 11:15:23;;;;;;;12.82;8.63;;;10.30;63.30;;;;;;5031685;28;20075;-79
2021/10/26 11:17:53;;;;;;;14.38;8.77;;;10.20;63.80;;;;;;5033453;28;20080;-79
2021/10/26 11:20:30;;;;;;;11.93;7.68;;;10.30;65.20;;;;;;5034973;28;20025;-78
2021/10/26 11:23:02;;;;;;;12.27;7.70;;;10.30;63.90;;;;;;5041187;28;20033;-78
2021/10/26 11:25:28;;;;;;;14.50;8.10;;;10.30;63.80;;;;;;5054817;28;20025;-78
2021/10/26 11:28:18;;;;;;;12.77;8.52;;;10.40;63.30;;;;;;5020032;28;20060;-79
2021/10/26 11:30:46;;;;;;;14.80;8.38;;;10.40;62.10;;;;;;5008123;28;20522;-79
2021/10/26 11:33:12;;;;;;;16.15;9.05;;;10.50;62.40;;;;;;5013780;28;20041;-79
2021/10/26 11:36:05;;;;;;;12.88;8.95;;;10.70;64.30;;;;;;5013901;28;20026;-80
2021/10/26 11:38:48;;;;;;;14.32;8.20;;;10.90;61.90;;;;;;5013954;28;20096;-80
2021/10/26 11:41:17;;;;;;;13.88;8.63;;;10.90;61.00;;;;;;5013607;28;20018;-79
2021/10/26 11:43:43;;;;;;;16.08;8.68;;;10.90;61.20;;;;;;5014808;28;20076;-80
2021/10/26 11:46:12;;;;;;;19.40;10.52;;;10.80;59.90;;;;;;5013759;28;20026;-80
2021/10/26 11:48:45;;;;;;;15.35;9.25;;;10.80;60.60;;;;;;5019962;28;20120;-79
2021/10/26 11:51:37;;;;;;;15.45;8.52;;;10.70;60.00;;;;;;5016236;28;20030;-79
2021/10/26 11:54:15;;;;;;;19.80;11.18;;;10.70;60.80;;;;;;5041315;28;20033;-79
2021/10/26 11:56:52;;;;;;;12.43;8.90;;;10.70;61.50;;;;;;5015253;28;20689;-79
2021/10/26 11:59:21;;;;;;;14.95;8.85;;;10.70;61.60;;;;;;5013686;28;20137;-79
2021/10/26 12:01:54;;;;;;;13.25;8.38;;;10.80;61.60;;;;;;5015207;28;20127;-81
2021/10/26 12:04:29;;;;;;;;;;;10.80;61.00;;;;;;5014928;28;20096;-79
2021/10/26 12:06:58;;;;;;;10.65;7.18;;;10.90;61.80;;;;;;5017867;28;19909;-80
2021/10/26 12:09:26;;;;;;;11.60;8.15;;;11.10;62.90;;;;;;5030929;28;20057;-80
2021/10/26 12:11:53;;;;;;;12.73;9.23;;;11.20;62.10;;;;;;5025168;28;20506;-79
2021/10/26 12:14:26;;;;;;;16.05;10.65;;;11.30;61.40;;;;;;5015029;28;20399;-81
2021/10/26 12:17:13;;;;;;;17.33;9.68;;;11.40;60.50;;;;;;5014609;28;20487;-79
2021/10/26 12:19:45;;;;;;;15.77;8.82;;;11.50;59.60;;;;;;5012244;28;20044;-80
2021/10/26 12:22:43;;;;;;;18.77;10.43;;;11.40;59.70;;;;;;5018838;28;20025;-80
2021/10/26 12:25:18;;;;;;;15.00;8.45;;;11.40;60.20;;;;;;5022567;28;20026;-77
2021/10/26 12:27:56;;;;;;;17.67;9.90;;;11.40;60.70;;;;;;5013605;28;20026;-79
2021/10/26 12:30:31;;;;;;;15.27;8.65;;;11.30;60.90;;;;;;5016924;28;20049;-80
2021/10/26 12:33:21;;;;;;;16.00;8.88;;;11.30;62.00;;;;;;5014316;28;20045;-79
2021/10/26 12:36:06;;;;;;;13.95;8.30;;;11.30;61.50;;;;;;5013286;28;20062;-79
2021/10/26 12:38:36;;;;;;;16.85;8.20;;;11.30;62.00;;;;;;5014552;28;20499;-80
2021/10/26 12:41:14;;;;;;;14.25;9.40;;;11.30;61.80;;;;;;5032591;28;20022;-79
2021/10/26 12:43:40;;;;;;;14.40;8.70;;;11.30;61.80;;;;;;5030924;28;20041;-79
2021/10/26 12:46:16;;;;;;;14.70;9.18;;;11.30;62.80;;;;;;5016088;28;20034;-79
2021/10/26 12:48:42;;;;;;;12.32;8.85;;;11.30;62.30;;;;;;5013447;28;20557;-79
2021/10/26 12:51:09;;;;;;;15.15;7.85;;;11.40;63.00;;;;;;5020776;28;20021;-80